Terminal Aerodrome Forecast
Issued by NWS Los Angeles, CA

Home | Current Version | Previous Version | Text Only | Print | Product List | Glossary On
Versions: 1 2 3 4 5 6 7 8 9 10 11 12 13 14 15 16 17 18 19
000
FTUS46 KLOX 250700 AAA
TAFSMX
TAF AMD
KSMX 250720Z 2507/2606 29006KT 6SM BR BKN004
     FM251000 29006KT P6SM OVC008
     FM251600 32007KT P6SM BKN100 BKN200
     FM252100 30015G20KT P6SM VCSH SCT040 OVC080
      TEMPO 2521/2524 6SM -SHRA BKN040
     FM260000 31012KT P6SM -SHRA OVC040
     FM260500 30008KT P6SM BKN050=

USA.gov is the U.S. government's official web portal to all federal, state and local government web resources and services.